sensor_id;sensor_type;location;lat;lon;timestamp;P1;durP1;ratioP1;P2;durP2;ratioP2
23567;SDS011;11962;50.838;4.430;2022-09-09T00:02:23;3.13;;;1.20;;
23567;SDS011;11962;50.838;4.430;2022-09-09T00:07:25;5.88;;;1.35;;
23567;SDS011;11962;50.838;4.430;2022-09-09T00:15:55;4.25;;;1.10;;
23567;SDS011;11962;50.838;4.430;2022-09-09T00:21:37;3.47;;;1.38;;
23567;SDS011;11962;50.838;4.430;2022-09-09T00:24:14;5.50;;;1.48;;
23567;SDS011;11962;50.838;4.430;2022-09-09T00:26:45;4.80;;;1.00;;
23567;SDS011;11962;50.838;4.430;2022-09-09T00:34:12;3.38;;;1.17;;
23567;SDS011;11962;50.838;4.430;2022-09-09T00:36:46;2.50;;;1.10;;
23567;SDS011;11962;50.838;4.430;2022-09-09T00:48:07;3.42;;;1.27;;
23567;SDS011;11962;50.838;4.430;2022-09-09T00:58:49;3.45;;;0.90;;
23567;SDS011;11962;50.838;4.430;2022-09-09T01:01:33;6.75;;;1.40;;
23567;SDS011;11962;50.838;4.430;2022-09-09T01:04:00;3.47;;;1.10;;
23567;SDS011;11962;50.838;4.430;2022-09-09T01:17:21;5.75;;;0.95;;
23567;SDS011;11962;50.838;4.430;2022-09-09T01:20:00;3.53;;;1.13;;
23567;SDS011;11962;50.838;4.430;2022-09-09T01:28:49;2.53;;;0.95;;
23567;SDS011;11962;50.838;4.430;2022-09-09T01:31:26;4.85;;;1.48;;
23567;SDS011;11962;50.838;4.430;2022-09-09T01:34:13;4.97;;;1.30;;
23567;SDS011;11962;50.838;4.430;2022-09-09T01:36:44;3.78;;;1.25;;
23567;SDS011;11962;50.838;4.430;2022-09-09T01:39:22;5.85;;;0.93;;
23567;SDS011;11962;50.838;4.430;2022-09-09T01:41:47;4.45;;;1.52;;
23567;SDS011;11962;50.838;4.430;2022-09-09T01:44:13;3.80;;;1.10;;
23567;SDS011;11962;50.838;4.430;2022-09-09T01:46:39;5.80;;;1.30;;
23567;SDS011;11962;50.838;4.430;2022-09-09T01:49:05;6.65;;;1.40;;
23567;SDS011;11962;50.838;4.430;2022-09-09T01:51:32;5.35;;;1.45;;
23567;SDS011;11962;50.838;4.430;2022-09-09T01:53:58;5.00;;;1.30;;
23567;SDS011;11962;50.838;4.430;2022-09-09T01:59:03;8.18;;;1.52;;
23567;SDS011;11962;50.838;4.430;2022-09-09T02:07:06;7.15;;;1.30;;
23567;SDS011;11962;50.838;4.430;2022-09-09T02:10:15;6.95;;;1.80;;
23567;SDS011;11962;50.838;4.430;2022-09-09T02:12:50;6.75;;;1.42;;
23567;SDS011;11962;50.838;4.430;2022-09-09T02:15:26;6.80;;;1.58;;
23567;SDS011;11962;50.838;4.430;2022-09-09T02:18:07;7.53;;;1.70;;
23567;SDS011;11962;50.838;4.430;2022-09-09T02:20:36;6.10;;;1.83;;
23567;SDS011;11962;50.838;4.430;2022-09-09T02:23:02;12.10;;;2.08;;
23567;SDS011;11962;50.838;4.430;2022-09-09T02:25:39;4.80;;;1.60;;
23567;SDS011;11962;50.838;4.430;2022-09-09T02:28:06;4.78;;;1.50;;
23567;SDS011;11962;50.838;4.430;2022-09-09T02:30:35;7.40;;;1.45;;
23567;SDS011;11962;50.838;4.430;2022-09-09T02:33:03;12.80;;;1.92;;
23567;SDS011;11962;50.838;4.430;2022-09-09T02:35:32;7.40;;;2.00;;
23567;SDS011;11962;50.838;4.430;2022-09-09T02:38:03;6.72;;;2.10;;
23567;SDS011;11962;50.838;4.430;2022-09-09T02:40:43;13.55;;;2.20;;
23567;SDS011;11962;50.838;4.430;2022-09-09T02:43:10;8.75;;;2.13;;
23567;SDS011;11962;50.838;4.430;2022-09-09T02:45:41;14.77;;;2.30;;
23567;SDS011;11962;50.838;4.430;2022-09-09T02:51:02;9.82;;;1.67;;
23567;SDS011;11962;50.838;4.430;2022-09-09T02:53:53;8.25;;;1.92;;
23567;SDS011;11962;50.838;4.430;2022-09-09T02:56:27;8.07;;;2.03;;
23567;SDS011;11962;50.838;4.430;2022-09-09T02:58:57;7.55;;;2.08;;
23567;SDS011;11962;50.838;4.430;2022-09-09T03:01:23;12.95;;;2.10;;
23567;SDS011;11962;50.838;4.430;2022-09-09T03:03:49;9.68;;;2.05;;
23567;SDS011;11962;50.838;4.430;2022-09-09T03:06:14;10.02;;;2.00;;
23567;SDS011;11962;50.838;4.430;2022-09-09T03:08:41;6.70;;;1.75;;
23567;SDS011;11962;50.838;4.430;2022-09-09T03:11:12;8.13;;;2.00;;
23567;SDS011;11962;50.838;4.430;2022-09-09T03:13:39;10.88;;;1.90;;
23567;SDS011;11962;50.838;4.430;2022-09-09T03:16:04;9.48;;;1.80;;
23567;SDS011;11962;50.838;4.430;2022-09-09T03:18:30;9.73;;;2.13;;
23567;SDS011;11962;50.838;4.430;2022-09-09T03:20:57;8.10;;;2.13;;
23567;SDS011;11962;50.838;4.430;2022-09-09T03:23:24;9.15;;;1.67;;
23567;SDS011;11962;50.838;4.430;2022-09-09T03:25:50;10.32;;;1.88;;
23567;SDS011;11962;50.838;4.430;2022-09-09T03:28:16;7.68;;;1.92;;
23567;SDS011;11962;50.838;4.430;2022-09-09T03:30:41;5.07;;;1.73;;
23567;SDS011;11962;50.838;4.430;2022-09-09T03:33:07;7.93;;;1.80;;
23567;SDS011;11962;50.838;4.430;2022-09-09T03:35:33;11.25;;;2.28;;
23567;SDS011;11962;50.838;4.430;2022-09-09T03:37:58;10.18;;;2.10;;
23567;SDS011;11962;50.838;4.430;2022-09-09T03:40:25;9.27;;;1.75;;
23567;SDS011;11962;50.838;4.430;2022-09-09T03:42:51;11.65;;;2.05;;
23567;SDS011;11962;50.838;4.430;2022-09-09T03:45:17;9.23;;;1.98;;
23567;SDS011;11962;50.838;4.430;2022-09-09T03:47:43;14.02;;;2.40;;
23567;SDS011;11962;50.838;4.430;2022-09-09T03:50:08;17.15;;;2.33;;
23567;SDS011;11962;50.838;4.430;2022-09-09T03:52:36;12.68;;;2.00;;
23567;SDS011;11962;50.838;4.430;2022-09-09T03:55:03;9.57;;;2.17;;
23567;SDS011;11962;50.838;4.430;2022-09-09T03:57:29;9.85;;;2.10;;
23567;SDS011;11962;50.838;4.430;2022-09-09T03:59:55;13.02;;;2.83;;
23567;SDS011;11962;50.838;4.430;2022-09-09T04:02:21;10.70;;;2.30;;
23567;SDS011;11962;50.838;4.430;2022-09-09T04:04:46;13.30;;;2.05;;
23567;SDS011;11962;50.838;4.430;2022-09-09T04:07:12;13.35;;;1.98;;
23567;SDS011;11962;50.838;4.430;2022-09-09T04:09:38;6.72;;;1.65;;
23567;SDS011;11962;50.838;4.430;2022-09-09T04:12:03;10.45;;;2.10;;
23567;SDS011;11962;50.838;4.430;2022-09-09T04:14:29;14.98;;;2.20;;
23567;SDS011;11962;50.838;4.430;2022-09-09T04:16:55;9.75;;;1.90;;
23567;SDS011;11962;50.838;4.430;2022-09-09T04:19:23;10.07;;;2.17;;
23567;SDS011;11962;50.838;4.430;2022-09-09T04:21:48;9.13;;;2.10;;
23567;SDS011;11962;50.838;4.430;2022-09-09T04:24:16;8.18;;;1.70;;
23567;SDS011;11962;50.838;4.430;2022-09-09T04:26:41;13.23;;;2.10;;
23567;SDS011;11962;50.838;4.430;2022-09-09T04:29:07;12.15;;;2.05;;
23567;SDS011;11962;50.838;4.430;2022-09-09T04:31:33;14.98;;;2.08;;
23567;SDS011;11962;50.838;4.430;2022-09-09T04:33:59;8.52;;;1.90;;
23567;SDS011;11962;50.838;4.430;2022-09-09T04:36:29;7.30;;;1.70;;
23567;SDS011;11962;50.838;4.430;2022-09-09T04:38:56;9.95;;;2.00;;
23567;SDS011;11962;50.838;4.430;2022-09-09T04:41:23;12.43;;;2.42;;
23567;SDS011;11962;50.838;4.430;2022-09-09T04:43:49;9.25;;;2.30;;
23567;SDS011;11962;50.838;4.430;2022-09-09T04:46:18;10.27;;;1.90;;
23567;SDS011;11962;50.838;4.430;2022-09-09T04:48:45;13.82;;;2.58;;
23567;SDS011;11962;50.838;4.430;2022-09-09T04:51:11;16.30;;;2.47;;
23567;SDS011;11962;50.838;4.430;2022-09-09T04:53:38;10.63;;;2.72;;
23567;SDS011;11962;50.838;4.430;2022-09-09T04:56:09;11.82;;;2.58;;
23567;SDS011;11962;50.838;4.430;2022-09-09T04:58:37;10.65;;;2.28;;
23567;SDS011;11962;50.838;4.430;2022-09-09T05:01:05;13.68;;;2.28;;
23567;SDS011;11962;50.838;4.430;2022-09-09T05:03:32;10.05;;;2.22;;
23567;SDS011;11962;50.838;4.430;2022-09-09T05:08:29;9.15;;;2.40;;
23567;SDS011;11962;50.838;4.430;2022-09-09T05:10:55;11.20;;;2.47;;
23567;SDS011;11962;50.838;4.430;2022-09-09T05:13:20;11.30;;;2.67;;
23567;SDS011;11962;50.838;4.430;2022-09-09T05:15:51;9.68;;;2.45;;
23567;SDS011;11962;50.838;4.430;2022-09-09T05:18:18;13.18;;;2.20;;
23567;SDS011;11962;50.838;4.430;2022-09-09T05:20:43;12.10;;;2.70;;
23567;SDS011;11962;50.838;4.430;2022-09-09T05:23:09;12.23;;;2.55;;
23567;SDS011;11962;50.838;4.430;2022-09-09T05:25:38;15.15;;;2.95;;
23567;SDS011;11962;50.838;4.430;2022-09-09T05:28:05;10.77;;;2.75;;
23567;SDS011;11962;50.838;4.430;2022-09-09T05:30:33;14.70;;;2.75;;
23567;SDS011;11962;50.838;4.430;2022-09-09T05:32:59;10.60;;;2.38;;
23567;SDS011;11962;50.838;4.430;2022-09-09T05:35:24;12.68;;;2.30;;
23567;SDS011;11962;50.838;4.430;2022-09-09T05:37:50;10.55;;;2.42;;
23567;SDS011;11962;50.838;4.430;2022-09-09T05:40:16;13.73;;;2.20;;
23567;SDS011;11962;50.838;4.430;2022-09-09T05:42:42;10.43;;;2.08;;
23567;SDS011;11962;50.838;4.430;2022-09-09T05:45:08;10.95;;;2.72;;
23567;SDS011;11962;50.838;4.430;2022-09-09T05:47:34;14.25;;;2.50;;
23567;SDS011;11962;50.838;4.430;2022-09-09T05:50:02;8.73;;;2.60;;
23567;SDS011;11962;50.838;4.430;2022-09-09T05:52:29;18.17;;;3.10;;
23567;SDS011;11962;50.838;4.430;2022-09-09T05:54:55;9.80;;;2.35;;
23567;SDS011;11962;50.838;4.430;2022-09-09T06:00:15;12.20;;;2.53;;
23567;SDS011;11962;50.838;4.430;2022-09-09T06:02:41;6.53;;;1.98;;
23567;SDS011;11962;50.838;4.430;2022-09-09T06:05:07;9.95;;;2.40;;
23567;SDS011;11962;50.838;4.430;2022-09-09T06:07:33;14.48;;;2.35;;
23567;SDS011;11962;50.838;4.430;2022-09-09T06:09:59;11.95;;;2.17;;
23567;SDS011;11962;50.838;4.430;2022-09-09T06:12:25;10.82;;;2.75;;
23567;SDS011;11962;50.838;4.430;2022-09-09T06:14:51;13.25;;;2.38;;
23567;SDS011;11962;50.838;4.430;2022-09-09T06:17:17;11.00;;;2.33;;
23567;SDS011;11962;50.838;4.430;2022-09-09T06:19:42;9.48;;;1.90;;
23567;SDS011;11962;50.838;4.430;2022-09-09T06:22:08;16.23;;;2.35;;
23567;SDS011;11962;50.838;4.430;2022-09-09T06:24:37;11.93;;;2.45;;
23567;SDS011;11962;50.838;4.430;2022-09-09T06:27:03;7.95;;;1.42;;
23567;SDS011;11962;50.838;4.430;2022-09-09T06:29:30;10.45;;;1.95;;
23567;SDS011;11962;50.838;4.430;2022-09-09T06:31:55;13.02;;;2.25;;
23567;SDS011;11962;50.838;4.430;2022-09-09T06:34:21;12.88;;;2.05;;
23567;SDS011;11962;50.838;4.430;2022-09-09T06:36:47;8.50;;;1.92;;
23567;SDS011;11962;50.838;4.430;2022-09-09T06:39:13;10.40;;;2.30;;
23567;SDS011;11962;50.838;4.430;2022-09-09T06:41:40;10.20;;;2.03;;
23567;SDS011;11962;50.838;4.430;2022-09-09T06:44:07;11.23;;;1.73;;
23567;SDS011;11962;50.838;4.430;2022-09-09T06:46:33;9.75;;;2.20;;
23567;SDS011;11962;50.838;4.430;2022-09-09T06:49:00;11.00;;;2.45;;
23567;SDS011;11962;50.838;4.430;2022-09-09T06:51:28;11.45;;;2.13;;
23567;SDS011;11962;50.838;4.430;2022-09-09T06:53:56;8.63;;;1.88;;
23567;SDS011;11962;50.838;4.430;2022-09-09T06:56:41;6.85;;;1.77;;
23567;SDS011;11962;50.838;4.430;2022-09-09T06:59:08;9.27;;;1.80;;
23567;SDS011;11962;50.838;4.430;2022-09-09T07:01:35;10.27;;;1.90;;
23567;SDS011;11962;50.838;4.430;2022-09-09T07:04:05;8.50;;;2.17;;
23567;SDS011;11962;50.838;4.430;2022-09-09T07:06:43;8.43;;;1.45;;
23567;SDS011;11962;50.838;4.430;2022-09-09T07:09:11;11.60;;;1.95;;
23567;SDS011;11962;50.838;4.430;2022-09-09T07:11:40;13.23;;;1.88;;
23567;SDS011;11962;50.838;4.430;2022-09-09T07:14:07;15.68;;;2.40;;
23567;SDS011;11962;50.838;4.430;2022-09-09T07:16:34;7.82;;;1.77;;
23567;SDS011;11962;50.838;4.430;2022-09-09T07:19:02;10.88;;;2.08;;
23567;SDS011;11962;50.838;4.430;2022-09-09T07:21:29;13.45;;;1.80;;
23567;SDS011;11962;50.838;4.430;2022-09-09T07:23:56;12.13;;;1.88;;
23567;SDS011;11962;50.838;4.430;2022-09-09T07:29:16;7.93;;;1.63;;
23567;SDS011;11962;50.838;4.430;2022-09-09T07:31:42;10.18;;;2.13;;
23567;SDS011;11962;50.838;4.430;2022-09-09T07:34:08;8.40;;;1.90;;
23567;SDS011;11962;50.838;4.430;2022-09-09T07:36:34;11.82;;;2.10;;
23567;SDS011;11962;50.838;4.430;2022-09-09T07:39:04;8.73;;;1.85;;
23567;SDS011;11962;50.838;4.430;2022-09-09T07:44:36;10.23;;;2.05;;
23567;SDS011;11962;50.838;4.430;2022-09-09T07:47:02;7.20;;;1.70;;
23567;SDS011;11962;50.838;4.430;2022-09-09T07:49:28;7.28;;;1.70;;
23567;SDS011;11962;50.838;4.430;2022-09-09T07:51:54;6.38;;;1.80;;
23567;SDS011;11962;50.838;4.430;2022-09-09T07:54:20;8.90;;;2.00;;
23567;SDS011;11962;50.838;4.430;2022-09-09T07:56:48;10.27;;;1.98;;
23567;SDS011;11962;50.838;4.430;2022-09-09T07:59:14;12.60;;;1.75;;
23567;SDS011;11962;50.838;4.430;2022-09-09T08:01:41;7.10;;;1.90;;
23567;SDS011;11962;50.838;4.430;2022-09-09T08:04:11;6.93;;;1.98;;
23567;SDS011;11962;50.838;4.430;2022-09-09T08:06:42;8.07;;;2.25;;
23567;SDS011;11962;50.838;4.430;2022-09-09T08:09:19;10.70;;;1.58;;
23567;SDS011;11962;50.838;4.430;2022-09-09T08:12:04;8.57;;;1.83;;
23567;SDS011;11962;50.838;4.430;2022-09-09T08:14:31;9.52;;;2.03;;
23567;SDS011;11962;50.838;4.430;2022-09-09T08:16:57;9.82;;;2.00;;
23567;SDS011;11962;50.838;4.430;2022-09-09T08:19:23;10.52;;;1.75;;
23567;SDS011;11962;50.838;4.430;2022-09-09T08:21:49;8.35;;;2.13;;
23567;SDS011;11962;50.838;4.430;2022-09-09T08:24:14;12.00;;;2.28;;
23567;SDS011;11962;50.838;4.430;2022-09-09T08:27:01;5.82;;;1.52;;
23567;SDS011;11962;50.838;4.430;2022-09-09T08:29:26;8.02;;;1.90;;
23567;SDS011;11962;50.838;4.430;2022-09-09T08:31:54;9.68;;;1.60;;
23567;SDS011;11962;50.838;4.430;2022-09-09T08:34:22;6.65;;;1.63;;
23567;SDS011;11962;50.838;4.430;2022-09-09T08:36:50;9.00;;;1.70;;
23567;SDS011;11962;50.838;4.430;2022-09-09T08:39:17;8.38;;;1.80;;
23567;SDS011;11962;50.838;4.430;2022-09-09T08:52:18;13.65;;;2.22;;
23567;SDS011;11962;50.838;4.430;2022-09-09T08:54:47;6.38;;;1.88;;
23567;SDS011;11962;50.838;4.430;2022-09-09T08:57:16;9.95;;;2.20;;
23567;SDS011;11962;50.838;4.430;2022-09-09T08:59:46;8.75;;;1.40;;
23567;SDS011;11962;50.838;4.430;2022-09-09T09:02:17;7.13;;;1.85;;
23567;SDS011;11962;50.838;4.430;2022-09-09T09:19:05;6.25;;;1.80;;
23567;SDS011;11962;50.838;4.430;2022-09-09T09:21:38;11.95;;;2.47;;
23567;SDS011;11962;50.838;4.430;2022-09-09T09:24:19;7.25;;;1.60;;
23567;SDS011;11962;50.838;4.430;2022-09-09T09:26:48;9.98;;;1.80;;
23567;SDS011;11962;50.838;4.430;2022-09-09T09:29:18;8.48;;;2.10;;
23567;SDS011;11962;50.838;4.430;2022-09-09T09:31:48;8.88;;;1.70;;
23567;SDS011;11962;50.838;4.430;2022-09-09T09:34:19;13.25;;;2.35;;
23567;SDS011;11962;50.838;4.430;2022-09-09T09:36:52;10.02;;;2.13;;
23567;SDS011;11962;50.838;4.430;2022-09-09T09:39:23;7.25;;;2.08;;
23567;SDS011;11962;50.838;4.430;2022-09-09T09:41:51;8.70;;;1.77;;
23567;SDS011;11962;50.838;4.430;2022-09-09T09:44:22;4.38;;;2.00;;
23567;SDS011;11962;50.838;4.430;2022-09-09T09:46:49;10.18;;;2.17;;
23567;SDS011;11962;50.838;4.430;2022-09-09T09:49:15;9.57;;;2.22;;
23567;SDS011;11962;50.838;4.430;2022-09-09T09:51:42;9.85;;;2.20;;
23567;SDS011;11962;50.838;4.430;2022-09-09T09:56:52;5.65;;;1.42;;
23567;SDS011;11962;50.838;4.430;2022-09-09T09:59:22;9.13;;;1.90;;
23567;SDS011;11962;50.838;4.430;2022-09-09T10:02:14;6.80;;;1.63;;
23567;SDS011;11962;50.838;4.430;2022-09-09T10:04:42;8.18;;;1.92;;
23567;SDS011;11962;50.838;4.430;2022-09-09T10:07:26;12.52;;;2.10;;
23567;SDS011;11962;50.838;4.430;2022-09-09T10:09:53;7.05;;;1.83;;
23567;SDS011;11962;50.838;4.430;2022-09-09T10:12:33;7.72;;;1.73;;
23567;SDS011;11962;50.838;4.430;2022-09-09T10:15:41;6.18;;;1.92;;
23567;SDS011;11962;50.838;4.430;2022-09-09T10:18:20;8.77;;;1.95;;
23567;SDS011;11962;50.838;4.430;2022-09-09T10:20:54;6.53;;;1.90;;
23567;SDS011;11962;50.838;4.430;2022-09-09T10:23:32;5.30;;;1.85;;
23567;SDS011;11962;50.838;4.430;2022-09-09T10:26:10;9.43;;;2.28;;
23567;SDS011;11962;50.838;4.430;2022-09-09T10:29:11;8.75;;;2.13;;
23567;SDS011;11962;50.838;4.430;2022-09-09T10:37:54;5.55;;;1.40;;
23567;SDS011;11962;50.838;4.430;2022-09-09T10:40:40;6.10;;;1.80;;
23567;SDS011;11962;50.838;4.430;2022-09-09T10:57:10;5.65;;;1.77;;
23567;SDS011;11962;50.838;4.430;2022-09-09T10:59:43;7.18;;;1.52;;
23567;SDS011;11962;50.838;4.430;2022-09-09T11:02:22;10.38;;;2.08;;
23567;SDS011;11962;50.838;4.430;2022-09-09T11:04:57;8.52;;;1.70;;
23567;SDS011;11962;50.838;4.430;2022-09-09T11:07:39;9.43;;;1.73;;
23567;SDS011;11962;50.838;4.430;2022-09-09T11:13:19;9.98;;;1.85;;
23567;SDS011;11962;50.838;4.430;2022-09-09T11:16:05;6.93;;;1.75;;
23567;SDS011;11962;50.838;4.430;2022-09-09T11:18:37;6.07;;;1.52;;
23567;SDS011;11962;50.838;4.430;2022-09-09T11:21:06;4.72;;;1.30;;
23567;SDS011;11962;50.838;4.430;2022-09-09T11:23:42;6.25;;;1.38;;
23567;SDS011;11962;50.838;4.430;2022-09-09T11:26:13;6.22;;;1.52;;
23567;SDS011;11962;50.838;4.430;2022-09-09T11:37:31;4.75;;;1.48;;
23567;SDS011;11962;50.838;4.430;2022-09-09T11:40:16;7.07;;;1.40;;
23567;SDS011;11962;50.838;4.430;2022-09-09T11:42:44;4.80;;;1.27;;
23567;SDS011;11962;50.838;4.430;2022-09-09T11:45:30;5.35;;;1.30;;
23567;SDS011;11962;50.838;4.430;2022-09-09T11:48:01;3.58;;;1.20;;
23567;SDS011;11962;50.838;4.430;2022-09-09T11:50:32;6.05;;;1.35;;
23567;SDS011;11962;50.838;4.430;2022-09-09T11:53:21;7.97;;;1.45;;
23567;SDS011;11962;50.838;4.430;2022-09-09T11:55:48;3.85;;;1.38;;
23567;SDS011;11962;50.838;4.430;2022-09-09T11:58:26;7.10;;;1.40;;
23567;SDS011;11962;50.838;4.430;2022-09-09T12:00:57;8.13;;;1.30;;
23567;SDS011;11962;50.838;4.430;2022-09-09T12:03:41;5.88;;;1.40;;
23567;SDS011;11962;50.838;4.430;2022-09-09T12:08:43;5.50;;;1.42;;
23567;SDS011;11962;50.838;4.430;2022-09-09T12:11:23;9.10;;;1.70;;
23567;SDS011;11962;50.838;4.430;2022-09-09T12:13:54;5.13;;;1.30;;
23567;SDS011;11962;50.838;4.430;2022-09-09T12:16:32;7.13;;;1.95;;
23567;SDS011;11962;50.838;4.430;2022-09-09T12:19:03;2.65;;;1.23;;
23567;SDS011;11962;50.838;4.430;2022-09-09T12:21:40;6.97;;;1.35;;
23567;SDS011;11962;50.838;4.430;2022-09-09T12:24:35;7.38;;;1.40;;
23567;SDS011;11962;50.838;4.430;2022-09-09T12:27:22;5.93;;;1.40;;
23567;SDS011;11962;50.838;4.430;2022-09-09T12:30:16;6.55;;;1.60;;
23567;SDS011;11962;50.838;4.430;2022-09-09T12:32:42;7.88;;;1.58;;
23567;SDS011;11962;50.838;4.430;2022-09-09T12:37:47;7.50;;;1.27;;
23567;SDS011;11962;50.838;4.430;2022-09-09T12:42:53;8.60;;;1.08;;
23567;SDS011;11962;50.838;4.430;2022-09-09T12:45:25;6.50;;;1.52;;
23567;SDS011;11962;50.838;4.430;2022-09-09T12:47:54;4.65;;;1.30;;
23567;SDS011;11962;50.838;4.430;2022-09-09T12:52:50;5.45;;;1.17;;
23567;SDS011;11962;50.838;4.430;2022-09-09T12:55:20;5.82;;;1.20;;
23567;SDS011;11962;50.838;4.430;2022-09-09T12:57:50;5.55;;;1.17;;
23567;SDS011;11962;50.838;4.430;2022-09-09T13:03:23;5.32;;;1.13;;
23567;SDS011;11962;50.838;4.430;2022-09-09T13:05:50;3.05;;;1.02;;
23567;SDS011;11962;50.838;4.430;2022-09-09T13:08:16;4.70;;;1.33;;
23567;SDS011;11962;50.838;4.430;2022-09-09T13:10:58;3.83;;;1.05;;
23567;SDS011;11962;50.838;4.430;2022-09-09T13:13:29;6.70;;;1.20;;
23567;SDS011;11962;50.838;4.430;2022-09-09T13:16:06;4.07;;;1.00;;
23567;SDS011;11962;50.838;4.430;2022-09-09T13:18:43;9.88;;;1.33;;
23567;SDS011;11962;50.838;4.430;2022-09-09T13:21:08;4.85;;;1.40;;
23567;SDS011;11962;50.838;4.430;2022-09-09T13:23:35;4.38;;;1.02;;
23567;SDS011;11962;50.838;4.430;2022-09-09T13:28:31;3.97;;;1.15;;
23567;SDS011;11962;50.838;4.430;2022-09-09T13:31:05;4.80;;;1.23;;
23567;SDS011;11962;50.838;4.430;2022-09-09T13:33:44;4.93;;;0.93;;
23567;SDS011;11962;50.838;4.430;2022-09-09T13:36:10;6.93;;;1.30;;
23567;SDS011;11962;50.838;4.430;2022-09-09T13:38:38;3.75;;;1.20;;
23567;SDS011;11962;50.838;4.430;2022-09-09T13:41:21;6.65;;;1.27;;
23567;SDS011;11962;50.838;4.430;2022-09-09T13:43:49;4.32;;;1.08;;
23567;SDS011;11962;50.838;4.430;2022-09-09T13:51:46;3.80;;;1.02;;
23567;SDS011;11962;50.838;4.430;2022-09-09T13:54:16;3.88;;;1.00;;
23567;SDS011;11962;50.838;4.430;2022-09-09T13:56:47;4.80;;;0.73;;
23567;SDS011;11962;50.838;4.430;2022-09-09T13:59:18;5.95;;;1.05;;
23567;SDS011;11962;50.838;4.430;2022-09-09T14:05:06;4.78;;;0.98;;
23567;SDS011;11962;50.838;4.430;2022-09-09T14:07:32;6.32;;;1.20;;
23567;SDS011;11962;50.838;4.430;2022-09-09T14:09:59;3.47;;;0.90;;
23567;SDS011;11962;50.838;4.430;2022-09-09T14:12:25;5.45;;;1.00;;
23567;SDS011;11962;50.838;4.430;2022-09-09T14:14:50;5.55;;;0.95;;
23567;SDS011;11962;50.838;4.430;2022-09-09T14:17:16;4.85;;;1.30;;
23567;SDS011;11962;50.838;4.430;2022-09-09T14:19:42;4.32;;;1.05;;
23567;SDS011;11962;50.838;4.430;2022-09-09T14:22:08;6.03;;;1.30;;
23567;SDS011;11962;50.838;4.430;2022-09-09T14:24:33;2.85;;;0.98;;
23567;SDS011;11962;50.838;4.430;2022-09-09T14:26:59;3.40;;;1.23;;
23567;SDS011;11962;50.838;4.430;2022-09-09T14:29:25;4.70;;;1.00;;
23567;SDS011;11962;50.838;4.430;2022-09-09T14:31:52;9.73;;;1.50;;
23567;SDS011;11962;50.838;4.430;2022-09-09T14:34:18;4.45;;;1.20;;
23567;SDS011;11962;50.838;4.430;2022-09-09T14:36:43;2.92;;;1.10;;
23567;SDS011;11962;50.838;4.430;2022-09-09T14:39:10;3.88;;;1.00;;
23567;SDS011;11962;50.838;4.430;2022-09-09T14:41:35;3.00;;;1.13;;
23567;SDS011;11962;50.838;4.430;2022-09-09T14:44:01;3.22;;;1.00;;
23567;SDS011;11962;50.838;4.430;2022-09-09T14:46:39;10.23;;;1.83;;
23567;SDS011;11962;50.838;4.430;2022-09-09T14:49:04;4.30;;;1.20;;
23567;SDS011;11962;50.838;4.430;2022-09-09T14:51:30;6.13;;;1.40;;
23567;SDS011;11962;50.838;4.430;2022-09-09T14:53:57;4.95;;;1.20;;
23567;SDS011;11962;50.838;4.430;2022-09-09T14:56:25;2.50;;;0.90;;
23567;SDS011;11962;50.838;4.430;2022-09-09T14:58:53;4.40;;;1.20;;
23567;SDS011;11962;50.838;4.430;2022-09-09T15:01:38;3.75;;;1.33;;
23567;SDS011;11962;50.838;4.430;2022-09-09T15:04:04;3.67;;;1.15;;
23567;SDS011;11962;50.838;4.430;2022-09-09T15:06:31;6.88;;;1.13;;
23567;SDS011;11962;50.838;4.430;2022-09-09T15:08:58;6.95;;;1.30;;
23567;SDS011;11962;50.838;4.430;2022-09-09T15:11:26;5.25;;;1.35;;
23567;SDS011;11962;50.838;4.430;2022-09-09T15:13:53;6.22;;;1.35;;
23567;SDS011;11962;50.838;4.430;2022-09-09T15:16:19;3.97;;;0.85;;
23567;SDS011;11962;50.838;4.430;2022-09-09T15:18:47;4.60;;;1.10;;
23567;SDS011;11962;50.838;4.430;2022-09-09T15:21:17;4.03;;;1.20;;
23567;SDS011;11962;50.838;4.430;2022-09-09T15:23:44;3.67;;;1.02;;
23567;SDS011;11962;50.838;4.430;2022-09-09T15:26:11;2.63;;;1.10;;
23567;SDS011;11962;50.838;4.430;2022-09-09T15:28:39;5.65;;;1.10;;
23567;SDS011;11962;50.838;4.430;2022-09-09T15:34:10;3.13;;;0.98;;
23567;SDS011;11962;50.838;4.430;2022-09-09T15:36:42;4.78;;;1.42;;
23567;SDS011;11962;50.838;4.430;2022-09-09T15:39:12;5.60;;;1.38;;
23567;SDS011;11962;50.838;4.430;2022-09-09T15:41:44;4.80;;;1.27;;
23567;SDS011;11962;50.838;4.430;2022-09-09T15:44:11;6.78;;;1.73;;
23567;SDS011;11962;50.838;4.430;2022-09-09T15:51:35;6.20;;;1.38;;
23567;SDS011;11962;50.838;4.430;2022-09-09T15:54:02;5.32;;;1.20;;
23567;SDS011;11962;50.838;4.430;2022-09-09T15:56:28;5.57;;;1.23;;
23567;SDS011;11962;50.838;4.430;2022-09-09T15:59:01;6.68;;;1.40;;
23567;SDS011;11962;50.838;4.430;2022-09-09T16:01:31;5.05;;;1.30;;
23567;SDS011;11962;50.838;4.430;2022-09-09T16:03:57;4.60;;;1.40;;
23567;SDS011;11962;50.838;4.430;2022-09-09T16:06:25;4.57;;;1.27;;
23567;SDS011;11962;50.838;4.430;2022-09-09T16:11:20;4.72;;;1.35;;
23567;SDS011;11962;50.838;4.430;2022-09-09T16:13:51;6.43;;;1.48;;
23567;SDS011;11962;50.838;4.430;2022-09-09T16:16:18;4.57;;;1.20;;
23567;SDS011;11962;50.838;4.430;2022-09-09T16:18:50;4.97;;;1.45;;
23567;SDS011;11962;50.838;4.430;2022-09-09T16:23:45;3.28;;;1.10;;
23567;SDS011;11962;50.838;4.430;2022-09-09T16:26:12;3.78;;;1.20;;
23567;SDS011;11962;50.838;4.430;2022-09-09T16:28:39;5.03;;;1.83;;
23567;SDS011;11962;50.838;4.430;2022-09-09T16:31:05;5.15;;;1.45;;
23567;SDS011;11962;50.838;4.430;2022-09-09T16:33:32;3.42;;;1.45;;
23567;SDS011;11962;50.838;4.430;2022-09-09T16:36:04;3.65;;;1.50;;
23567;SDS011;11962;50.838;4.430;2022-09-09T16:38:35;6.78;;;1.58;;
23567;SDS011;11962;50.838;4.430;2022-09-09T16:41:01;3.80;;;1.40;;
23567;SDS011;11962;50.838;4.430;2022-09-09T16:43:29;3.92;;;1.70;;
23567;SDS011;11962;50.838;4.430;2022-09-09T16:45:55;5.43;;;1.40;;
23567;SDS011;11962;50.838;4.430;2022-09-09T16:48:21;8.35;;;1.98;;
23567;SDS011;11962;50.838;4.430;2022-09-09T16:50:47;2.67;;;1.50;;
23567;SDS011;11962;50.838;4.430;2022-09-09T16:53:13;3.30;;;1.52;;
23567;SDS011;11962;50.838;4.430;2022-09-09T16:55:40;3.08;;;1.67;;
23567;SDS011;11962;50.838;4.430;2022-09-09T16:58:07;4.47;;;2.03;;
23567;SDS011;11962;50.838;4.430;2022-09-09T17:00:35;3.60;;;1.50;;
23567;SDS011;11962;50.838;4.430;2022-09-09T17:03:01;5.32;;;1.48;;
23567;SDS011;11962;50.838;4.430;2022-09-09T17:05:27;3.05;;;1.60;;
23567;SDS011;11962;50.838;4.430;2022-09-09T17:07:54;4.05;;;1.77;;
23567;SDS011;11962;50.838;4.430;2022-09-09T17:12:48;4.88;;;1.40;;
23567;SDS011;11962;50.838;4.430;2022-09-09T17:15:14;4.93;;;2.13;;
23567;SDS011;11962;50.838;4.430;2022-09-09T17:17:40;4.63;;;1.70;;
23567;SDS011;11962;50.838;4.430;2022-09-09T17:20:10;7.72;;;1.70;;
23567;SDS011;11962;50.838;4.430;2022-09-09T17:22:36;8.40;;;2.05;;
23567;SDS011;11962;50.838;4.430;2022-09-09T17:25:02;6.32;;;1.67;;
23567;SDS011;11962;50.838;4.430;2022-09-09T17:27:28;6.38;;;1.40;;
23567;SDS011;11962;50.838;4.430;2022-09-09T17:29:56;4.53;;;1.58;;
23567;SDS011;11962;50.838;4.430;2022-09-09T17:32:22;5.80;;;1.52;;
23567;SDS011;11962;50.838;4.430;2022-09-09T17:34:48;6.25;;;1.30;;
23567;SDS011;11962;50.838;4.430;2022-09-09T17:37:13;5.25;;;1.33;;
23567;SDS011;11962;50.838;4.430;2022-09-09T17:39:39;7.20;;;1.50;;
23567;SDS011;11962;50.838;4.430;2022-09-09T17:42:05;7.55;;;1.73;;
23567;SDS011;11962;50.838;4.430;2022-09-09T17:44:32;6.20;;;1.40;;
23567;SDS011;11962;50.838;4.430;2022-09-09T17:46:58;7.22;;;1.52;;
23567;SDS011;11962;50.838;4.430;2022-09-09T17:49:24;6.30;;;1.40;;
23567;SDS011;11962;50.838;4.430;2022-09-09T17:51:50;8.30;;;1.75;;
23567;SDS011;11962;50.838;4.430;2022-09-09T17:54:17;6.85;;;1.40;;